sensor_id;sensor_type;location;lat;lon;timestamp;temperature;humidity
38582;DHT22;24349;53.720;10.014;2024-02-26T00:02:18;2.80;99.90
38582;DHT22;24349;53.720;10.014;2024-02-26T00:04:44;2.80;99.90
38582;DHT22;24349;53.720;10.014;2024-02-26T00:07:09;2.90;99.90
38582;DHT22;24349;53.720;10.014;2024-02-26T00:09:35;2.90;99.90
38582;DHT22;24349;53.720;10.014;2024-02-26T00:12:03;2.80;99.90
38582;DHT22;24349;53.720;10.014;2024-02-26T00:14:29;2.80;99.90
38582;DHT22;24349;53.720;10.014;2024-02-26T00:16:55;2.80;99.90
38582;DHT22;24349;53.720;10.014;2024-02-26T00:19:21;2.80;99.90
38582;DHT22;24349;53.720;10.014;2024-02-26T00:21:46;2.80;99.90
38582;DHT22;24349;53.720;10.014;2024-02-26T00:24:12;2.70;99.90
38582;DHT22;24349;53.720;10.014;2024-02-26T00:26:38;2.60;99.90
38582;DHT22;24349;53.720;10.014;2024-02-26T00:29:03;2.40;99.90
38582;DHT22;24349;53.720;10.014;2024-02-26T00:31:29;2.30;99.90
38582;DHT22;24349;53.720;10.014;2024-02-26T00:33:55;2.20;99.90
38582;DHT22;24349;53.720;10.014;2024-02-26T00:36:20;2.30;99.90
38582;DHT22;24349;53.720;10.014;2024-02-26T00:38:46;2.30;99.90
38582;DHT22;24349;53.720;10.014;2024-02-26T00:41:16;2.20;99.90
38582;DHT22;24349;53.720;10.014;2024-02-26T00:43:42;2.20;99.90
38582;DHT22;24349;53.720;10.014;2024-02-26T00:46:08;2.20;99.90
38582;DHT22;24349;53.720;10.014;2024-02-26T00:48:33;2.20;99.90
38582;DHT22;24349;53.720;10.014;2024-02-26T00:50:59;2.20;99.90
38582;DHT22;24349;53.720;10.014;2024-02-26T00:53:24;2.20;99.90
38582;DHT22;24349;53.720;10.014;2024-02-26T00:55:50;2.10;99.90
38582;DHT22;24349;53.720;10.014;2024-02-26T00:58:16;2.10;99.90
38582;DHT22;24349;53.720;10.014;2024-02-26T01:00:42;2.20;99.90
38582;DHT22;24349;53.720;10.014;2024-02-26T01:03:07;2.20;99.90
38582;DHT22;24349;53.720;10.014;2024-02-26T01:05:33;2.20;99.90
38582;DHT22;24349;53.720;10.014;2024-02-26T01:07:59;2.10;99.90
38582;DHT22;24349;53.720;10.014;2024-02-26T01:10:24;2.10;99.90
38582;DHT22;24349;53.720;10.014;2024-02-26T01:12:50;2.00;99.90
38582;DHT22;24349;53.720;10.014;2024-02-26T01:15:16;2.00;99.90
38582;DHT22;24349;53.720;10.014;2024-02-26T01:17:41;2.00;99.90
38582;DHT22;24349;53.720;10.014;2024-02-26T01:20:07;2.00;99.90
38582;DHT22;24349;53.720;10.014;2024-02-26T01:22:34;1.90;99.90
38582;DHT22;24349;53.720;10.014;2024-02-26T01:25:00;1.90;99.90
38582;DHT22;24349;53.720;10.014;2024-02-26T01:27:25;1.90;99.90
38582;DHT22;24349;53.720;10.014;2024-02-26T01:29:52;2.00;99.90
38582;DHT22;24349;53.720;10.014;2024-02-26T01:32:18;1.90;99.90
38582;DHT22;24349;53.720;10.014;2024-02-26T01:34:45;1.90;99.90
38582;DHT22;24349;53.720;10.014;2024-02-26T01:37:10;1.90;99.90
38582;DHT22;24349;53.720;10.014;2024-02-26T01:39:36;1.90;99.90
38582;DHT22;24349;53.720;10.014;2024-02-26T01:42:02;1.90;99.90
38582;DHT22;24349;53.720;10.014;2024-02-26T01:44:28;1.90;99.90
38582;DHT22;24349;53.720;10.014;2024-02-26T01:46:53;1.90;99.90
38582;DHT22;24349;53.720;10.014;2024-02-26T01:49:19;1.90;99.90
38582;DHT22;24349;53.720;10.014;2024-02-26T01:51:45;1.90;99.90
38582;DHT22;24349;53.720;10.014;2024-02-26T01:54:11;1.80;99.90
38582;DHT22;24349;53.720;10.014;2024-02-26T01:56:38;1.80;99.90
38582;DHT22;24349;53.720;10.014;2024-02-26T01:59:05;1.80;99.90
38582;DHT22;24349;53.720;10.014;2024-02-26T02:01:32;1.80;99.90
38582;DHT22;24349;53.720;10.014;2024-02-26T02:03:59;1.70;99.90
38582;DHT22;24349;53.720;10.014;2024-02-26T02:06:26;1.60;99.90
38582;DHT22;24349;53.720;10.014;2024-02-26T02:08:54;1.60;99.90
38582;DHT22;24349;53.720;10.014;2024-02-26T02:11:20;1.60;99.90
38582;DHT22;24349;53.720;10.014;2024-02-26T02:13:46;1.70;99.90
38582;DHT22;24349;53.720;10.014;2024-02-26T02:16:11;1.70;99.90
38582;DHT22;24349;53.720;10.014;2024-02-26T02:18:37;1.80;99.90
38582;DHT22;24349;53.720;10.014;2024-02-26T02:21:03;1.80;99.90
38582;DHT22;24349;53.720;10.014;2024-02-26T02:23:29;1.70;99.90
38582;DHT22;24349;53.720;10.014;2024-02-26T02:25:56;1.60;99.90
38582;DHT22;24349;53.720;10.014;2024-02-26T02:28:23;1.60;99.90
38582;DHT22;24349;53.720;10.014;2024-02-26T02:30:50;1.70;99.90
38582;DHT22;24349;53.720;10.014;2024-02-26T02:33:17;1.70;99.90
38582;DHT22;24349;53.720;10.014;2024-02-26T02:35:43;1.70;99.90
38582;DHT22;24349;53.720;10.014;2024-02-26T02:38:08;1.70;99.90
38582;DHT22;24349;53.720;10.014;2024-02-26T02:40:34;1.70;99.90
38582;DHT22;24349;53.720;10.014;2024-02-26T02:43:00;1.70;99.90
38582;DHT22;24349;53.720;10.014;2024-02-26T02:45:27;1.70;99.90
38582;DHT22;24349;53.720;10.014;2024-02-26T02:47:53;1.70;99.90
38582;DHT22;24349;53.720;10.014;2024-02-26T02:50:18;1.70;99.90
38582;DHT22;24349;53.720;10.014;2024-02-26T02:52:44;1.70;99.90
38582;DHT22;24349;53.720;10.014;2024-02-26T02:55:10;1.60;99.90
38582;DHT22;24349;53.720;10.014;2024-02-26T02:57:36;1.60;99.90
38582;DHT22;24349;53.720;10.014;2024-02-26T03:00:07;1.60;99.90
38582;DHT22;24349;53.720;10.014;2024-02-26T03:02:33;1.60;99.90
38582;DHT22;24349;53.720;10.014;2024-02-26T03:05:03;1.60;99.90
38582;DHT22;24349;53.720;10.014;2024-02-26T03:07:29;1.60;99.90
38582;DHT22;24349;53.720;10.014;2024-02-26T03:09:55;1.60;99.90
38582;DHT22;24349;53.720;10.014;2024-02-26T03:12:22;1.60;99.90
38582;DHT22;24349;53.720;10.014;2024-02-26T03:14:48;1.50;99.90
38582;DHT22;24349;53.720;10.014;2024-02-26T03:17:13;1.50;99.90
38582;DHT22;24349;53.720;10.014;2024-02-26T03:19:39;1.50;99.90
38582;DHT22;24349;53.720;10.014;2024-02-26T03:22:04;1.40;99.90
38582;DHT22;24349;53.720;10.014;2024-02-26T03:24:30;1.30;99.90
38582;DHT22;24349;53.720;10.014;2024-02-26T03:26:56;1.30;99.90
38582;DHT22;24349;53.720;10.014;2024-02-26T03:29:22;1.30;99.90
38582;DHT22;24349;53.720;10.014;2024-02-26T03:31:48;1.30;99.90
38582;DHT22;24349;53.720;10.014;2024-02-26T03:34:13;1.40;99.90
38582;DHT22;24349;53.720;10.014;2024-02-26T03:36:40;1.30;99.90
38582;DHT22;24349;53.720;10.014;2024-02-26T03:39:06;1.40;99.90
38582;DHT22;24349;53.720;10.014;2024-02-26T03:41:33;1.30;99.90
38582;DHT22;24349;53.720;10.014;2024-02-26T03:44:00;1.30;99.90
38582;DHT22;24349;53.720;10.014;2024-02-26T03:46:26;1.40;99.90
38582;DHT22;24349;53.720;10.014;2024-02-26T03:48:51;1.30;99.90
38582;DHT22;24349;53.720;10.014;2024-02-26T03:51:17;1.30;99.90
38582;DHT22;24349;53.720;10.014;2024-02-26T03:53:42;1.30;99.90
38582;DHT22;24349;53.720;10.014;2024-02-26T03:56:08;1.40;99.90
38582;DHT22;24349;53.720;10.014;2024-02-26T03:58:36;1.40;99.90
38582;DHT22;24349;53.720;10.014;2024-02-26T04:01:02;1.30;99.90
38582;DHT22;24349;53.720;10.014;2024-02-26T04:03:27;1.20;99.90
38582;DHT22;24349;53.720;10.014;2024-02-26T04:05:53;1.20;99.90
38582;DHT22;24349;53.720;10.014;2024-02-26T04:08:19;1.20;99.90
38582;DHT22;24349;53.720;10.014;2024-02-26T04:10:44;1.20;99.90
38582;DHT22;24349;53.720;10.014;2024-02-26T04:13:10;1.10;99.90
38582;DHT22;24349;53.720;10.014;2024-02-26T04:15:35;1.10;99.90
38582;DHT22;24349;53.720;10.014;2024-02-26T04:18:01;0.90;99.90
38582;DHT22;24349;53.720;10.014;2024-02-26T04:20:28;0.90;99.90
38582;DHT22;24349;53.720;10.014;2024-02-26T04:22:53;0.90;99.90
38582;DHT22;24349;53.720;10.014;2024-02-26T04:25:19;1.00;99.90
38582;DHT22;24349;53.720;10.014;2024-02-26T04:27:44;1.00;99.90
38582;DHT22;24349;53.720;10.014;2024-02-26T04:30:10;1.00;99.90
38582;DHT22;24349;53.720;10.014;2024-02-26T04:32:36;1.00;99.90
38582;DHT22;24349;53.720;10.014;2024-02-26T04:35:02;1.00;99.90
38582;DHT22;24349;53.720;10.014;2024-02-26T04:37:28;1.00;99.90
38582;DHT22;24349;53.720;10.014;2024-02-26T04:40:00;1.00;99.90
38582;DHT22;24349;53.720;10.014;2024-02-26T04:42:26;1.10;99.90
38582;DHT22;24349;53.720;10.014;2024-02-26T04:44:52;1.00;99.90
38582;DHT22;24349;53.720;10.014;2024-02-26T04:47:18;1.00;99.90
38582;DHT22;24349;53.720;10.014;2024-02-26T04:49:44;1.00;99.90
38582;DHT22;24349;53.720;10.014;2024-02-26T04:52:09;1.00;99.90
38582;DHT22;24349;53.720;10.014;2024-02-26T04:54:35;1.00;99.90
38582;DHT22;24349;53.720;10.014;2024-02-26T04:57:00;1.00;99.90
38582;DHT22;24349;53.720;10.014;2024-02-26T04:59:26;1.10;99.90
38582;DHT22;24349;53.720;10.014;2024-02-26T05:01:51;1.00;99.90
38582;DHT22;24349;53.720;10.014;2024-02-26T05:04:18;1.00;99.90
38582;DHT22;24349;53.720;10.014;2024-02-26T05:06:44;1.00;99.90
38582;DHT22;24349;53.720;10.014;2024-02-26T05:09:09;0.90;99.90
38582;DHT22;24349;53.720;10.014;2024-02-26T05:11:35;1.00;99.90
38582;DHT22;24349;53.720;10.014;2024-02-26T05:14:01;1.00;99.90
38582;DHT22;24349;53.720;10.014;2024-02-26T05:16:26;1.00;99.90
38582;DHT22;24349;53.720;10.014;2024-02-26T05:18:53;0.90;99.90
38582;DHT22;24349;53.720;10.014;2024-02-26T05:21:18;0.90;99.90
38582;DHT22;24349;53.720;10.014;2024-02-26T05:23:44;0.80;99.90
38582;DHT22;24349;53.720;10.014;2024-02-26T05:26:10;0.70;99.90
38582;DHT22;24349;53.720;10.014;2024-02-26T05:28:36;0.90;99.90
38582;DHT22;24349;53.720;10.014;2024-02-26T05:31:04;1.00;99.90
38582;DHT22;24349;53.720;10.014;2024-02-26T05:33:30;1.00;99.90
38582;DHT22;24349;53.720;10.014;2024-02-26T05:35:56;1.10;99.90
38582;DHT22;24349;53.720;10.014;2024-02-26T05:38:21;1.10;99.90
38582;DHT22;24349;53.720;10.014;2024-02-26T05:40:47;1.10;99.90
38582;DHT22;24349;53.720;10.014;2024-02-26T05:43:13;1.00;99.90
38582;DHT22;24349;53.720;10.014;2024-02-26T05:45:41;1.10;99.90
38582;DHT22;24349;53.720;10.014;2024-02-26T05:48:06;1.20;99.90
38582;DHT22;24349;53.720;10.014;2024-02-26T05:50:32;1.20;99.90
38582;DHT22;24349;53.720;10.014;2024-02-26T05:52:58;1.30;99.90
38582;DHT22;24349;53.720;10.014;2024-02-26T05:55:23;1.20;99.90
38582;DHT22;24349;53.720;10.014;2024-02-26T05:57:49;1.40;99.90
38582;DHT22;24349;53.720;10.014;2024-02-26T06:00:15;1.50;99.90
38582;DHT22;24349;53.720;10.014;2024-02-26T06:02:41;1.50;99.90
38582;DHT22;24349;53.720;10.014;2024-02-26T06:05:06;1.60;99.90
38582;DHT22;24349;53.720;10.014;2024-02-26T06:07:34;1.60;99.90
38582;DHT22;24349;53.720;10.014;2024-02-26T06:10:00;1.60;99.90
38582;DHT22;24349;53.720;10.014;2024-02-26T06:12:26;1.70;99.90
38582;DHT22;24349;53.720;10.014;2024-02-26T06:14:54;1.70;99.90
38582;DHT22;24349;53.720;10.014;2024-02-26T06:17:19;1.70;99.90
38582;DHT22;24349;53.720;10.014;2024-02-26T06:19:45;1.70;99.90
38582;DHT22;24349;53.720;10.014;2024-02-26T06:22:11;1.70;99.90
38582;DHT22;24349;53.720;10.014;2024-02-26T06:24:37;1.80;99.90
38582;DHT22;24349;53.720;10.014;2024-02-26T06:27:03;1.90;99.90
38582;DHT22;24349;53.720;10.014;2024-02-26T06:29:28;1.80;99.90
38582;DHT22;24349;53.720;10.014;2024-02-26T06:31:54;1.80;99.90
38582;DHT22;24349;53.720;10.014;2024-02-26T06:34:21;1.90;99.90
38582;DHT22;24349;53.720;10.014;2024-02-26T06:36:46;1.90;99.90
38582;DHT22;24349;53.720;10.014;2024-02-26T06:39:12;1.90;99.90
38582;DHT22;24349;53.720;10.014;2024-02-26T06:41:38;1.90;99.90
38582;DHT22;24349;53.720;10.014;2024-02-26T06:44:05;2.00;99.90
38582;DHT22;24349;53.720;10.014;2024-02-26T06:46:31;2.00;99.90
38582;DHT22;24349;53.720;10.014;2024-02-26T06:48:57;2.10;99.90
38582;DHT22;24349;53.720;10.014;2024-02-26T06:51:22;2.10;99.90
38582;DHT22;24349;53.720;10.014;2024-02-26T06:53:49;2.20;99.90
38582;DHT22;24349;53.720;10.014;2024-02-26T06:56:15;2.30;99.90
38582;DHT22;24349;53.720;10.014;2024-02-26T06:58:40;2.30;99.90
38582;DHT22;24349;53.720;10.014;2024-02-26T07:01:06;2.30;99.90
38582;DHT22;24349;53.720;10.014;2024-02-26T07:03:33;2.30;99.90
38582;DHT22;24349;53.720;10.014;2024-02-26T07:05:59;2.40;99.90
38582;DHT22;24349;53.720;10.014;2024-02-26T07:08:25;2.40;99.90
38582;DHT22;24349;53.720;10.014;2024-02-26T07:10:50;2.40;99.90
38582;DHT22;24349;53.720;10.014;2024-02-26T07:13:16;2.40;99.90
38582;DHT22;24349;53.720;10.014;2024-02-26T07:15:42;2.40;99.90
38582;DHT22;24349;53.720;10.014;2024-02-26T07:18:07;2.50;99.90
38582;DHT22;24349;53.720;10.014;2024-02-26T07:20:33;2.50;99.90
38582;DHT22;24349;53.720;10.014;2024-02-26T07:22:58;2.60;99.90
38582;DHT22;24349;53.720;10.014;2024-02-26T07:25:24;2.60;99.90
38582;DHT22;24349;53.720;10.014;2024-02-26T07:27:50;2.60;99.90
38582;DHT22;24349;53.720;10.014;2024-02-26T07:30:16;2.60;99.90
38582;DHT22;24349;53.720;10.014;2024-02-26T07:32:42;2.60;99.90
38582;DHT22;24349;53.720;10.014;2024-02-26T07:35:08;2.60;99.90
38582;DHT22;24349;53.720;10.014;2024-02-26T07:37:34;2.70;99.90
38582;DHT22;24349;53.720;10.014;2024-02-26T07:40:00;2.70;99.90
38582;DHT22;24349;53.720;10.014;2024-02-26T07:42:26;2.70;99.90
38582;DHT22;24349;53.720;10.014;2024-02-26T07:44:51;2.70;99.90
38582;DHT22;24349;53.720;10.014;2024-02-26T07:47:18;2.70;99.90
38582;DHT22;24349;53.720;10.014;2024-02-26T07:49:43;2.90;99.90
38582;DHT22;24349;53.720;10.014;2024-02-26T07:52:09;3.00;99.90
38582;DHT22;24349;53.720;10.014;2024-02-26T07:54:34;3.00;99.90
38582;DHT22;24349;53.720;10.014;2024-02-26T07:57:01;2.90;99.90
38582;DHT22;24349;53.720;10.014;2024-02-26T07:59:29;3.00;99.90
38582;DHT22;24349;53.720;10.014;2024-02-26T08:01:54;3.10;99.90
38582;DHT22;24349;53.720;10.014;2024-02-26T08:04:20;3.20;99.90
38582;DHT22;24349;53.720;10.014;2024-02-26T08:06:45;3.30;99.90
38582;DHT22;24349;53.720;10.014;2024-02-26T08:09:11;3.30;99.90
38582;DHT22;24349;53.720;10.014;2024-02-26T08:11:38;3.40;99.90
38582;DHT22;24349;53.720;10.014;2024-02-26T08:14:04;3.40;99.90
38582;DHT22;24349;53.720;10.014;2024-02-26T08:16:29;3.50;99.90
38582;DHT22;24349;53.720;10.014;2024-02-26T08:18:55;3.60;99.90
38582;DHT22;24349;53.720;10.014;2024-02-26T08:21:21;3.60;99.90
38582;DHT22;24349;53.720;10.014;2024-02-26T08:23:46;3.70;99.90
38582;DHT22;24349;53.720;10.014;2024-02-26T08:26:12;3.90;99.90
38582;DHT22;24349;53.720;10.014;2024-02-26T08:28:38;3.90;99.90
38582;DHT22;24349;53.720;10.014;2024-02-26T08:31:03;4.00;99.90
38582;DHT22;24349;53.720;10.014;2024-02-26T08:33:30;3.90;99.90
38582;DHT22;24349;53.720;10.014;2024-02-26T08:35:56;4.10;99.90
38582;DHT22;24349;53.720;10.014;2024-02-26T08:38:21;4.00;99.90
38582;DHT22;24349;53.720;10.014;2024-02-26T08:40:48;4.10;99.90
38582;DHT22;24349;53.720;10.014;2024-02-26T08:43:13;4.10;99.90
38582;DHT22;24349;53.720;10.014;2024-02-26T08:45:39;4.10;99.90
38582;DHT22;24349;53.720;10.014;2024-02-26T08:48:05;4.20;99.90
38582;DHT22;24349;53.720;10.014;2024-02-26T08:50:31;4.20;99.90
38582;DHT22;24349;53.720;10.014;2024-02-26T08:52:56;4.20;99.90
38582;DHT22;24349;53.720;10.014;2024-02-26T08:55:22;4.30;99.90
38582;DHT22;24349;53.720;10.014;2024-02-26T08:57:48;4.30;99.90
38582;DHT22;24349;53.720;10.014;2024-02-26T09:00:14;4.30;99.90
38582;DHT22;24349;53.720;10.014;2024-02-26T09:02:41;4.30;99.90
38582;DHT22;24349;53.720;10.014;2024-02-26T09:05:09;4.40;99.90
38582;DHT22;24349;53.720;10.014;2024-02-26T09:07:35;4.40;99.90
38582;DHT22;24349;53.720;10.014;2024-02-26T09:10:02;4.50;99.90
38582;DHT22;24349;53.720;10.014;2024-02-26T09:12:27;4.60;99.90
38582;DHT22;24349;53.720;10.014;2024-02-26T09:14:53;4.60;99.90
38582;DHT22;24349;53.720;10.014;2024-02-26T09:17:21;4.60;99.90
38582;DHT22;24349;53.720;10.014;2024-02-26T09:19:58;4.50;99.90
38582;DHT22;24349;53.720;10.014;2024-02-26T09:22:23;4.70;99.90
38582;DHT22;24349;53.720;10.014;2024-02-26T09:24:49;4.70;99.90
38582;DHT22;24349;53.720;10.014;2024-02-26T09:27:16;4.80;99.90
38582;DHT22;24349;53.720;10.014;2024-02-26T09:29:42;4.80;99.90
38582;DHT22;24349;53.720;10.014;2024-02-26T09:32:08;4.90;99.90
38582;DHT22;24349;53.720;10.014;2024-02-26T09:34:34;4.90;99.90
38582;DHT22;24349;53.720;10.014;2024-02-26T09:37:00;5.00;99.90
38582;DHT22;24349;53.720;10.014;2024-02-26T09:39:26;5.10;99.90
38582;DHT22;24349;53.720;10.014;2024-02-26T09:41:53;5.20;99.90
38582;DHT22;24349;53.720;10.014;2024-02-26T09:44:20;5.30;99.90
38582;DHT22;24349;53.720;10.014;2024-02-26T09:46:47;5.40;99.90
38582;DHT22;24349;53.720;10.014;2024-02-26T09:49:15;5.50;99.90
38582;DHT22;24349;53.720;10.014;2024-02-26T09:51:41;5.60;99.90
38582;DHT22;24349;53.720;10.014;2024-02-26T09:54:09;5.60;99.90
38582;DHT22;24349;53.720;10.014;2024-02-26T09:56:37;5.80;99.90
38582;DHT22;24349;53.720;10.014;2024-02-26T09:59:06;6.00;99.90
38582;DHT22;24349;53.720;10.014;2024-02-26T10:01:36;6.00;99.90
38582;DHT22;24349;53.720;10.014;2024-02-26T10:04:04;5.70;99.90
38582;DHT22;24349;53.720;10.014;2024-02-26T10:06:30;6.00;99.90
38582;DHT22;24349;53.720;10.014;2024-02-26T10:08:58;6.00;99.90
38582;DHT22;24349;53.720;10.014;2024-02-26T10:11:25;6.10;99.90
38582;DHT22;24349;53.720;10.014;2024-02-26T10:13:51;6.10;99.90
38582;DHT22;24349;53.720;10.014;2024-02-26T10:16:16;6.10;99.90
38582;DHT22;24349;53.720;10.014;2024-02-26T10:18:49;6.20;99.90
38582;DHT22;24349;53.720;10.014;2024-02-26T10:21:18;6.10;99.90
38582;DHT22;24349;53.720;10.014;2024-02-26T10:23:44;6.20;99.90
38582;DHT22;24349;53.720;10.014;2024-02-26T10:26:12;6.20;99.90
38582;DHT22;24349;53.720;10.014;2024-02-26T10:28:39;6.30;99.90
38582;DHT22;24349;53.720;10.014;2024-02-26T10:31:04;6.30;99.90
38582;DHT22;24349;53.720;10.014;2024-02-26T10:33:32;6.50;99.90
38582;DHT22;24349;53.720;10.014;2024-02-26T10:35:58;6.70;99.90
38582;DHT22;24349;53.720;10.014;2024-02-26T10:38:24;6.90;99.90
38582;DHT22;24349;53.720;10.014;2024-02-26T10:40:50;6.90;99.90
38582;DHT22;24349;53.720;10.014;2024-02-26T10:43:16;6.90;99.90
38582;DHT22;24349;53.720;10.014;2024-02-26T10:45:43;6.90;99.90
38582;DHT22;24349;53.720;10.014;2024-02-26T10:48:13;6.80;99.90
38582;DHT22;24349;53.720;10.014;2024-02-26T10:50:40;6.80;99.90
38582;DHT22;24349;53.720;10.014;2024-02-26T10:53:33;6.80;99.90
38582;DHT22;24349;53.720;10.014;2024-02-26T10:56:02;6.80;99.90
38582;DHT22;24349;53.720;10.014;2024-02-26T10:58:29;7.00;99.90
38582;DHT22;24349;53.720;10.014;2024-02-26T11:00:56;7.10;99.90
38582;DHT22;24349;53.720;10.014;2024-02-26T11:03:22;7.00;99.90
38582;DHT22;24349;53.720;10.014;2024-02-26T11:05:49;7.20;99.90
38582;DHT22;24349;53.720;10.014;2024-02-26T11:08:16;7.30;99.90
38582;DHT22;24349;53.720;10.014;2024-02-26T11:10:43;7.40;99.90
38582;DHT22;24349;53.720;10.014;2024-02-26T11:13:11;7.50;99.90
38582;DHT22;24349;53.720;10.014;2024-02-26T11:15:39;7.20;99.90
38582;DHT22;24349;53.720;10.014;2024-02-26T11:18:06;7.30;99.90
38582;DHT22;24349;53.720;10.014;2024-02-26T11:20:32;7.40;99.90
38582;DHT22;24349;53.720;10.014;2024-02-26T11:22:59;7.30;99.90
38582;DHT22;24349;53.720;10.014;2024-02-26T11:25:24;7.00;99.90
38582;DHT22;24349;53.720;10.014;2024-02-26T11:27:56;7.00;99.90
38582;DHT22;24349;53.720;10.014;2024-02-26T11:30:25;6.90;99.90
38582;DHT22;24349;53.720;10.014;2024-02-26T11:32:52;7.00;99.90
38582;DHT22;24349;53.720;10.014;2024-02-26T11:35:18;7.10;99.90
38582;DHT22;24349;53.720;10.014;2024-02-26T11:37:54;7.20;99.90
38582;DHT22;24349;53.720;10.014;2024-02-26T11:40:23;7.40;99.90
38582;DHT22;24349;53.720;10.014;2024-02-26T11:42:49;7.70;99.90
38582;DHT22;24349;53.720;10.014;2024-02-26T11:45:47;7.90;99.90
38582;DHT22;24349;53.720;10.014;2024-02-26T11:48:14;7.80;99.90
38582;DHT22;24349;53.720;10.014;2024-02-26T11:50:51;7.70;99.90
38582;DHT22;24349;53.720;10.014;2024-02-26T11:53:30;7.70;99.90
38582;DHT22;24349;53.720;10.014;2024-02-26T11:58:45;7.80;99.90
38582;DHT22;24349;53.720;10.014;2024-02-26T12:01:39;7.80;99.90
38582;DHT22;24349;53.720;10.014;2024-02-26T12:04:16;7.80;99.90
38582;DHT22;24349;53.720;10.014;2024-02-26T12:06:48;7.70;99.90
38582;DHT22;24349;53.720;10.014;2024-02-26T12:09:40;7.50;99.90
38582;DHT22;24349;53.720;10.014;2024-02-26T12:12:11;7.50;99.90
38582;DHT22;24349;53.720;10.014;2024-02-26T12:14:40;7.70;99.90
38582;DHT22;24349;53.720;10.014;2024-02-26T12:17:07;7.70;99.90
38582;DHT22;24349;53.720;10.014;2024-02-26T12:19:37;7.50;99.90
38582;DHT22;24349;53.720;10.014;2024-02-26T12:22:03;7.20;99.90
38582;DHT22;24349;53.720;10.014;2024-02-26T12:24:31;7.30;99.90
38582;DHT22;24349;53.720;10.014;2024-02-26T12:26:57;7.40;99.90
38582;DHT22;24349;53.720;10.014;2024-02-26T12:29:23;7.40;99.90
38582;DHT22;24349;53.720;10.014;2024-02-26T12:31:49;7.40;99.90
38582;DHT22;24349;53.720;10.014;2024-02-26T12:34:15;7.40;99.90
38582;DHT22;24349;53.720;10.014;2024-02-26T12:36:42;7.30;99.90
38582;DHT22;24349;53.720;10.014;2024-02-26T12:39:07;7.20;99.90
38582;DHT22;24349;53.720;10.014;2024-02-26T12:41:35;7.30;99.90
38582;DHT22;24349;53.720;10.014;2024-02-26T12:44:01;7.30;99.90
38582;DHT22;24349;53.720;10.014;2024-02-26T12:46:27;7.20;99.90
38582;DHT22;24349;53.720;10.014;2024-02-26T12:48:55;7.20;99.90
38582;DHT22;24349;53.720;10.014;2024-02-26T12:51:23;7.10;99.90
38582;DHT22;24349;53.720;10.014;2024-02-26T12:53:50;7.20;99.90
38582;DHT22;24349;53.720;10.014;2024-02-26T12:56:18;7.10;99.90
38582;DHT22;24349;53.720;10.014;2024-02-26T12:58:44;7.10;99.90
38582;DHT22;24349;53.720;10.014;2024-02-26T13:01:15;7.20;99.90
38582;DHT22;24349;53.720;10.014;2024-02-26T13:03:41;7.20;99.90
38582;DHT22;24349;53.720;10.014;2024-02-26T13:06:07;7.20;99.90
38582;DHT22;24349;53.720;10.014;2024-02-26T13:08:33;7.20;99.90
38582;DHT22;24349;53.720;10.014;2024-02-26T13:11:00;7.10;99.90
38582;DHT22;24349;53.720;10.014;2024-02-26T13:13:26;7.20;99.90
38582;DHT22;24349;53.720;10.014;2024-02-26T13:16:04;7.30;99.90
38582;DHT22;24349;53.720;10.014;2024-02-26T13:18:30;7.10;99.90
38582;DHT22;24349;53.720;10.014;2024-02-26T13:21:13;7.20;99.90
38582;DHT22;24349;53.720;10.014;2024-02-26T13:23:39;7.20;99.90
38582;DHT22;24349;53.720;10.014;2024-02-26T13:26:06;7.30;99.90
38582;DHT22;24349;53.720;10.014;2024-02-26T13:28:33;7.40;99.90
38582;DHT22;24349;53.720;10.014;2024-02-26T13:31:00;7.40;99.90
38582;DHT22;24349;53.720;10.014;2024-02-26T13:33:27;7.50;99.90
38582;DHT22;24349;53.720;10.014;2024-02-26T13:35:54;7.30;99.90
38582;DHT22;24349;53.720;10.014;2024-02-26T13:38:20;7.50;99.90
38582;DHT22;24349;53.720;10.014;2024-02-26T13:40:46;7.40;99.90
38582;DHT22;24349;53.720;10.014;2024-02-26T13:43:11;7.60;99.90
38582;DHT22;24349;53.720;10.014;2024-02-26T13:45:38;7.60;99.90
38582;DHT22;24349;53.720;10.014;2024-02-26T13:48:06;7.50;99.90
38582;DHT22;24349;53.720;10.014;2024-02-26T13:50:32;7.60;99.90
38582;DHT22;24349;53.720;10.014;2024-02-26T13:52:58;7.70;99.90
38582;DHT22;24349;53.720;10.014;2024-02-26T13:55:26;7.80;99.90
38582;DHT22;24349;53.720;10.014;2024-02-26T13:57:54;7.90;99.90
38582;DHT22;24349;53.720;10.014;2024-02-26T14:00:20;7.90;99.90
38582;DHT22;24349;53.720;10.014;2024-02-26T14:02:45;7.90;99.90
38582;DHT22;24349;53.720;10.014;2024-02-26T14:05:11;7.90;99.90
38582;DHT22;24349;53.720;10.014;2024-02-26T14:07:37;7.90;99.90
38582;DHT22;24349;53.720;10.014;2024-02-26T14:10:03;7.90;99.90
38582;DHT22;24349;53.720;10.014;2024-02-26T14:12:29;7.80;99.90
38582;DHT22;24349;53.720;10.014;2024-02-26T14:14:55;7.80;99.90
38582;DHT22;24349;53.720;10.014;2024-02-26T14:17:21;7.80;99.90
38582;DHT22;24349;53.720;10.014;2024-02-26T14:19:48;7.90;99.90
38582;DHT22;24349;53.720;10.014;2024-02-26T14:22:14;7.90;99.90
38582;DHT22;24349;53.720;10.014;2024-02-26T14:24:43;7.90;99.90
38582;DHT22;24349;53.720;10.014;2024-02-26T14:27:09;7.90;99.90
38582;DHT22;24349;53.720;10.014;2024-02-26T14:29:35;7.90;99.90
38582;DHT22;24349;53.720;10.014;2024-02-26T14:32:03;8.00;99.90
38582;DHT22;24349;53.720;10.014;2024-02-26T14:34:29;8.00;99.90
38582;DHT22;24349;53.720;10.014;2024-02-26T14:36:54;7.90;99.90
38582;DHT22;24349;53.720;10.014;2024-02-26T14:39:21;7.80;99.90
38582;DHT22;24349;53.720;10.014;2024-02-26T14:41:46;7.80;99.90
38582;DHT22;24349;53.720;10.014;2024-02-26T14:44:12;7.80;99.90
38582;DHT22;24349;53.720;10.014;2024-02-26T14:46:38;7.70;99.90
38582;DHT22;24349;53.720;10.014;2024-02-26T14:49:07;7.60;99.90
38582;DHT22;24349;53.720;10.014;2024-02-26T14:51:33;7.70;99.90
38582;DHT22;24349;53.720;10.014;2024-02-26T14:53:58;7.70;99.90
38582;DHT22;24349;53.720;10.014;2024-02-26T14:56:26;7.40;99.90
38582;DHT22;24349;53.720;10.014;2024-02-26T14:58:51;7.30;99.90
38582;DHT22;24349;53.720;10.014;2024-02-26T15:01:17;7.30;99.90
38582;DHT22;24349;53.720;10.014;2024-02-26T15:03:42;7.30;99.90
38582;DHT22;24349;53.720;10.014;2024-02-26T15:06:09;7.30;99.90
38582;DHT22;24349;53.720;10.014;2024-02-26T15:08:34;7.30;99.90
38582;DHT22;24349;53.720;10.014;2024-02-26T15:11:01;7.00;99.90
38582;DHT22;24349;53.720;10.014;2024-02-26T15:13:27;6.90;99.90
38582;DHT22;24349;53.720;10.014;2024-02-26T15:15:52;6.90;99.90
38582;DHT22;24349;53.720;10.014;2024-02-26T15:18:18;6.90;99.90
38582;DHT22;24349;53.720;10.014;2024-02-26T15:20:44;6.80;99.90
38582;DHT22;24349;53.720;10.014;2024-02-26T15:23:11;6.70;99.90
38582;DHT22;24349;53.720;10.014;2024-02-26T15:25:36;6.50;99.90
38582;DHT22;24349;53.720;10.014;2024-02-26T15:28:02;6.50;99.90
38582;DHT22;24349;53.720;10.014;2024-02-26T15:30:28;6.50;99.90